Time;durP1;ratioP1;P1;durP2;ratioP2;P2;SDS_P1;SDS_P2;PMS_P1;PMS_P2;Temp;Humidity;BMP_temperature;BMP_pressure;BME280_temperature;BME280_humidity;BME280_pressure;Samples;Min_cycle;Max_cycle;Signal;HPM_P1;HPM_P2
2022/06/12 00:01:29;;;;;;;3.80;2.00;;;;;;;;;;9504880;30;20087;-64
2022/06/12 00:06:24;;;;;;;2.78;2.28;;;;;;;;;;9504888;30;20095;-63
2022/06/12 00:11:19;;;;;;;2.17;1.98;;;;;;;;;;9516709;30;20061;-63
2022/06/12 00:16:13;;;;;;;2.28;2.08;;;;;;;;;;9505085;30;20535;-64
2022/06/12 00:21:11;;;;;;;1.70;1.60;;;;;;;;;;9516271;30;20080;-63
2022/06/12 00:26:05;;;;;;;3.63;1.90;;;;;;;;;;9514531;30;20080;-63
2022/06/12 00:30:59;;;;;;;3.42;2.08;;;;;;;;;;9515577;30;20079;-63
2022/06/12 00:35:53;;;;;;;2.50;2.30;;;;;;;;;;9509611;30;20174;-63
2022/06/12 00:40:47;;;;;;;3.70;2.42;;;;;;;;;;9510085;30;20094;-64
2022/06/12 00:45:58;;;;;;;7.57;2.38;;;;;;;;;;9509932;30;20458;-63
2022/06/12 00:51:30;;;;;;;2.47;2.20;;;;;;;;;;9504197;30;20148;-64
2022/06/12 00:56:47;;;;;;;3.40;1.80;;;;;;;;;;9410460;30;20069;-63
2022/06/12 01:01:47;;;;;;;2.22;2.03;;;;;;;;;;9491976;30;20060;-63
2022/06/12 01:06:45;;;;;;;4.75;2.03;;;;;;;;;;9518516;30;20055;-63
2022/06/12 01:11:42;;;;;;;3.53;2.25;;;;;;;;;;9530153;30;20482;-63
2022/06/12 01:16:57;;;;;;;4.07;2.47;;;;;;;;;;9515237;30;20138;-63
2022/06/12 01:21:53;;;;;;;4.68;3.00;;;;;;;;;;9518882;30;20089;-63
2022/06/12 01:27:13;;;;;;;3.47;2.45;;;;;;;;;;9523032;30;20063;-63
2022/06/12 01:32:14;;;;;;;2.78;2.03;;;;;;;;;;9512379;30;20462;-64
2022/06/12 01:37:35;;;;;;;3.35;2.05;;;;;;;;;;9511079;30;20059;-63
2022/06/12 01:42:41;;;;;;;2.40;2.20;;;;;;;;;;9509715;30;20431;-63
2022/06/12 01:47:37;;;;;;;2.67;2.05;;;;;;;;;;9511314;30;20076;-63
2022/06/12 01:52:42;;;;;;;4.43;2.00;;;;;;;;;;9509134;30;20148;-63
2022/06/12 01:57:50;;;;;;;1.90;1.67;;;;;;;;;;9508514;30;20082;-63
2022/06/12 02:02:52;;;;;;;2.95;2.08;;;;;;;;;;9512402;30;20052;-63
2022/06/12 02:08:05;;;;;;;2.42;1.90;;;;;;;;;;9515978;30;20048;-63
2022/06/12 02:13:27;;;;;;;4.40;2.03;;;;;;;;;;9519535;30;20102;-63
2022/06/12 02:18:25;;;;;;;2.15;1.92;;;;;;;;;;9513682;30;20090;-63
2022/06/12 02:23:43;;;;;;;2.60;1.88;;;;;;;;;;9524796;30;20062;-63
2022/06/12 02:28:45;;;;;;;2.00;1.80;;;;;;;;;;9520941;30;20129;-63
2022/06/12 02:33:41;;;;;;;3.97;2.20;;;;;;;;;;9495204;30;20084;-63
2022/06/12 02:38:37;;;;;;;2.00;1.90;;;;;;;;;;9514289;30;20143;-63
2022/06/12 02:43:33;;;;;;;3.92;1.83;;;;;;;;;;9514062;30;20060;-63
2022/06/12 02:48:28;;;;;;;3.08;1.90;;;;;;;;;;9512435;30;20416;-63
2022/06/12 02:53:58;;;;;;;3.15;2.25;;;;;;;;;;9530430;30;20051;-63
2022/06/12 02:59:02;;;;;;;5.22;1.85;;;;;;;;;;9528520;30;20075;-63
2022/06/12 03:04:10;;;;;;;3.00;2.03;;;;;;;;;;9503646;30;20060;-63
2022/06/12 03:09:06;;;;;;;2.08;1.88;;;;;;;;;;9502971;30;20060;-63
2022/06/12 03:14:00;;;;;;;2.08;1.63;;;;;;;;;;9523241;30;20121;-63
2022/06/12 03:19:17;;;;;;;1.83;1.73;;;;;;;;;;9525167;30;20079;-63
2022/06/12 03:25:01;;;;;;;5.10;2.00;;;;;;;;;;9508737;30;20147;-63
2022/06/12 03:30:18;;;;;;;3.75;2.95;;;;;;;;;;9498099;30;20078;-63
2022/06/12 03:35:30;;;;;;;4.13;3.72;;;;;;;;;;9505348;30;20080;-62
2022/06/12 03:40:32;;;;;;;3.97;3.58;;;;;;;;;;9515374;30;20096;-62
2022/06/12 03:45:44;;;;;;;5.43;3.58;;;;;;;;;;9505065;30;20475;-62
2022/06/12 03:50:46;;;;;;;4.30;3.90;;;;;;;;;;9497934;30;20056;-63
2022/06/12 04:01:01;;;;;;;8.03;3.90;;;;;;;;;;9501689;30;20554;-63
2022/06/12 04:06:09;;;;;;;4.75;4.25;;;;;;;;;;9510768;30;20048;-63
2022/06/12 04:11:03;;;;;;;5.30;4.80;;;;;;;;;;9504783;30;20080;-63
2022/06/12 04:16:04;;;;;;;4.50;4.10;;;;;;;;;;9507210;30;20068;-63
2022/06/12 04:21:01;;;;;;;4.93;4.22;;;;;;;;;;9496794;30;20488;-63
2022/06/12 04:26:02;;;;;;;5.68;4.18;;;;;;;;;;9522137;30;20420;-63
2022/06/12 04:30:58;;;;;;;6.68;5.18;;;;;;;;;;9528751;30;20056;-63
2022/06/12 04:35:58;;;;;;;3.60;3.30;;;;;;;;;;9516099;30;20056;-63
2022/06/12 04:40:52;;;;;;;5.38;4.10;;;;;;;;;;9527729;30;20083;-63
2022/06/12 04:45:46;;;;;;;6.95;4.50;;;;;;;;;;9511405;30;20056;-63
2022/06/12 04:50:41;;;;;;;4.85;4.00;;;;;;;;;;9514344;30;20497;-63
2022/06/12 04:55:35;;;;;;;5.47;4.05;;;;;;;;;;9510599;30;20083;-63
2022/06/12 05:00:29;;;;;;;3.53;3.22;;;;;;;;;;9511037;30;20079;-63
2022/06/12 05:05:25;;;;;;;10.43;3.83;;;;;;;;;;9518454;30;20454;-63
2022/06/12 05:10:18;;;;;;;8.88;4.38;;;;;;;;;;9525356;30;20052;-63
2022/06/12 05:15:12;;;;;;;5.75;4.20;;;;;;;;;;9521972;30;20470;-63
2022/06/12 05:20:10;;;;;;;4.03;3.63;;;;;;;;;;9529429;30;20204;-63
2022/06/12 05:25:05;;;;;;;4.55;2.80;;;;;;;;;;9497134;30;20056;-63
2022/06/12 05:29:59;;;;;;;8.38;2.40;;;;;;;;;;9521824;30;20187;-63
2022/06/12 05:34:53;;;;;;;4.78;3.53;;;;;;;;;;9509872;30;20559;-63
2022/06/12 05:39:47;;;;;;;5.22;3.17;;;;;;;;;;9509606;30;20052;-63
2022/06/12 05:44:41;;;;;;;8.55;3.45;;;;;;;;;;9507916;30;20060;-63
2022/06/12 05:49:34;;;;;;;4.85;2.90;;;;;;;;;;9509520;30;20443;-63
2022/06/12 05:54:29;;;;;;;4.50;3.45;;;;;;;;;;9508883;30;20691;-63
2022/06/12 05:59:23;;;;;;;7.13;3.15;;;;;;;;;;9509155;30;20507;-63
2022/06/12 06:04:17;;;;;;;8.25;3.70;;;;;;;;;;9521252;30;20412;-63
2022/06/12 06:09:11;;;;;;;7.43;3.90;;;;;;;;;;9513776;30;20068;-64
2022/06/12 06:14:06;;;;;;;8.30;3.65;;;;;;;;;;9516806;30;20467;-63
2022/06/12 06:19:01;;;;;;;10.15;3.60;;;;;;;;;;9523024;30;20566;-63
2022/06/12 06:23:54;;;;;;;11.20;3.15;;;;;;;;;;9521270;30;20056;-63
2022/06/12 06:28:50;;;;;;;11.68;3.40;;;;;;;;;;9512037;30;20079;-63
2022/06/12 06:33:45;;;;;;;9.85;3.60;;;;;;;;;;9507526;30;20059;-63
2022/06/12 06:38:38;;;;;;;7.00;3.55;;;;;;;;;;9521367;30;20134;-63
2022/06/12 06:46:13;;;;;;;6.25;3.83;;;;;;;;;;9507344;30;20056;-63
2022/06/12 06:48:46;;;;;;;10.60;3.67;;;;;;;;;;9506253;30;20147;-63
2022/06/12 06:53:40;;;;;;;5.22;2.70;;;;;;;;;;9506449;30;20056;-63
2022/06/12 06:58:35;;;;;;;5.43;2.90;;;;;;;;;;9506934;30;20508;-63
2022/06/12 07:03:28;;;;;;;4.18;3.70;;;;;;;;;;9506852;30;20055;-63
2022/06/12 07:08:23;;;;;;;6.95;3.00;;;;;;;;;;9490734;30;20064;-64
2022/06/12 07:13:17;;;;;;;6.10;2.75;;;;;;;;;;9506899;30;20507;-64
2022/06/12 07:18:12;;;;;;;4.80;2.83;;;;;;;;;;9506217;30;20163;-63
2022/06/12 07:23:07;;;;;;;3.92;2.53;;;;;;;;;;9505839;30;20064;-64
2022/06/12 07:28:02;;;;;;;3.55;3.08;;;;;;;;;;9506714;30;20056;-64
2022/06/12 07:33:01;;;;;;;3.70;3.40;;;;;;;;;;9506136;30;20052;-63
2022/06/12 07:37:55;;;;;;;4.90;3.53;;;;;;;;;;9505796;30;20060;-64
2022/06/12 07:42:49;;;;;;;3.03;2.72;;;;;;;;;;9505270;30;20064;-64
2022/06/12 07:47:43;;;;;;;6.45;2.88;;;;;;;;;;9516965;30;20048;-63
2022/06/12 07:52:38;;;;;;;9.05;2.90;;;;;;;;;;9524146;30;20052;-64
2022/06/12 07:57:32;;;;;;;3.20;2.70;;;;;;;;;;9511062;30;20059;-63
2022/06/12 08:02:28;;;;;;;3.35;3.03;;;;;;;;;;9504805;30;20079;-64
2022/06/12 08:07:22;;;;;;;2.38;2.20;;;;;;;;;;9509670;30;20149;-64
2022/06/12 08:12:16;;;;;;;2.55;2.35;;;;;;;;;;9512302;30;20055;-64
2022/06/12 08:17:11;;;;;;;3.78;2.83;;;;;;;;;;9511787;30;20052;-64
2022/06/12 08:22:06;;;;;;;3.28;2.20;;;;;;;;;;9512036;30;20128;-64
2022/06/12 08:27:00;;;;;;;2.70;2.50;;;;;;;;;;9506865;30;20110;-64
2022/06/12 08:32:01;;;;;;;4.53;2.40;;;;;;;;;;9511888;30;20056;-64
2022/06/12 08:36:57;;;;;;;5.70;2.20;;;;;;;;;;9511369;30;20056;-63
2022/06/12 08:41:55;;;;;;;5.22;2.17;;;;;;;;;;9512206;30;20062;-64
2022/06/12 08:46:53;;;;;;;4.15;2.53;;;;;;;;;;9510720;30;20135;-64
2022/06/12 08:51:54;;;;;;;4.50;1.70;;;;;;;;;;9511079;30;20625;-64
2022/06/12 08:56:56;;;;;;;5.40;2.38;;;;;;;;;;9510847;30;20060;-64
2022/06/12 09:01:50;;;;;;;3.00;2.00;;;;;;;;;;9505136;30;20070;-65
2022/06/12 09:06:50;;;;;;;2.47;2.10;;;;;;;;;;9525183;30;20059;-64
2022/06/12 09:12:18;;;;;;;3.20;2.40;;;;;;;;;;9523421;30;20408;-64
2022/06/12 09:17:30;;;;;;;3.03;2.33;;;;;;;;;;9501548;30;20064;-65
2022/06/12 09:23:01;;;;;;;2.55;1.80;;;;;;;;;;9509863;30;20063;-65
2022/06/12 09:28:09;;;;;;;2.75;1.70;;;;;;;;;;9518625;30;20052;-65
2022/06/12 09:33:39;;;;;;;5.18;1.85;;;;;;;;;;9509727;30;20096;-64
2022/06/12 09:38:57;;;;;;;3.03;1.73;;;;;;;;;;9470133;30;20070;-64
2022/06/12 09:44:04;;;;;;;;;;;;;;;;;;9509801;30;20990;-64
2022/06/12 09:49:06;;;;;;;1.73;1.63;;;;;;;;;;9509184;30;19926;-65
2022/06/12 09:54:20;;;;;;;1.85;1.75;;;;;;;;;;9508815;30;20425;-65
2022/06/12 09:59:18;;;;;;;2.90;1.70;;;;;;;;;;9507530;30;20067;-64
2022/06/12 10:04:18;;;;;;;3.13;1.63;;;;;;;;;;9498049;30;20070;-65
2022/06/12 10:09:29;;;;;;;2.88;2.00;;;;;;;;;;9491763;30;20055;-65
2022/06/12 10:14:32;;;;;;;3.42;1.42;;;;;;;;;;9517155;30;20064;-65
2022/06/12 10:19:46;;;;;;;1.48;1.38;;;;;;;;;;9517456;30;20068;-65
2022/06/12 10:24:40;;;;;;;1.80;1.45;;;;;;;;;;9506198;30;20059;-65
2022/06/12 10:29:51;;;;;;;2.40;1.38;;;;;;;;;;9506633;30;20107;-65
2022/06/12 10:34:44;;;;;;;2.55;1.08;;;;;;;;;;9507758;30;20119;-64
2022/06/12 10:39:40;;;;;;;5.15;1.30;;;;;;;;;;9507444;30;20527;-65
2022/06/12 10:44:53;;;;;;;3.97;1.55;;;;;;;;;;9522771;30;20055;-65
2022/06/12 10:49:47;;;;;;;3.10;1.55;;;;;;;;;;9503581;30;20420;-65
2022/06/12 10:54:40;;;;;;;1.58;1.48;;;;;;;;;;9515448;30;20052;-63
2022/06/12 10:59:41;;;;;;;2.08;1.20;;;;;;;;;;9507347;30;20443;-64
2022/06/12 11:05:00;;;;;;;5.68;1.77;;;;;;;;;;9499082;30;20056;-65
2022/06/12 11:10:08;;;;;;;1.65;1.40;;;;;;;;;;9517816;30;20056;-65
2022/06/12 11:15:14;;;;;;;2.10;1.40;;;;;;;;;;9515187;30;20064;-64
2022/06/12 11:20:26;;;;;;;3.27;1.27;;;;;;;;;;9506457;30;20056;-65
2022/06/12 11:25:28;;;;;;;3.35;1.70;;;;;;;;;;9506420;30;20052;-65
2022/06/12 11:30:39;;;;;;;2.65;1.27;;;;;;;;;;9512927;30;20075;-64
2022/06/12 11:35:43;;;;;;;1.35;1.25;;;;;;;;;;9525821;30;20063;-64
2022/06/12 11:40:42;;;;;;;2.92;1.20;;;;;;;;;;9506045;30;20056;-65
2022/06/12 11:45:48;;;;;;;2.83;1.30;;;;;;;;;;9505895;30;20048;-65
2022/06/12 11:51:07;;;;;;;4.57;1.23;;;;;;;;;;9501920;30;20048;-65
2022/06/12 11:56:20;;;;;;;4.93;1.73;;;;;;;;;;9498883;30;20059;-65
2022/06/12 12:01:46;;;;;;;1.73;1.30;;;;;;;;;;9531221;30;20488;-65
2022/06/12 12:06:58;;;;;;;1.30;1.08;;;;;;;;;;9496955;30;20062;-65
2022/06/12 12:12:00;;;;;;;1.77;1.30;;;;;;;;;;9505104;30;20056;-65
2022/06/12 12:17:25;;;;;;;2.22;1.42;;;;;;;;;;9492604;30;20064;-65
2022/06/12 12:22:48;;;;;;;1.13;1.02;;;;;;;;;;9505050;30;20064;-65
2022/06/12 12:27:54;;;;;;;2.80;1.70;;;;;;;;;;9504335;30;20500;-65
2022/06/12 12:32:53;;;;;;;1.20;1.10;;;;;;;;;;9507310;30;20113;-65
2022/06/12 12:43:05;;;;;;;1.75;1.00;;;;;;;;;;9504618;30;20052;-65
2022/06/12 12:48:03;;;;;;;1.65;1.17;;;;;;;;;;9504063;30;20088;-65
2022/06/12 12:52:59;;;;;;;1.40;1.00;;;;;;;;;;9508365;30;20556;-65
2022/06/12 12:57:52;;;;;;;1.25;1.05;;;;;;;;;;9495461;30;20424;-65
2022/06/12 13:02:53;;;;;;;1.20;0.70;;;;;;;;;;9528716;30;20124;-64
2022/06/12 13:08:07;;;;;;;1.98;0.90;;;;;;;;;;9501130;30;20048;-65
2022/06/12 13:13:42;;;;;;;3.42;0.82;;;;;;;;;;9510055;30;20072;-65
2022/06/12 13:19:10;;;;;;;1.95;1.33;;;;;;;;;;9407108;30;20064;-65
2022/06/12 13:24:40;;;;;;;3.70;0.93;;;;;;;;;;9510621;30;20067;-65
2022/06/12 13:29:43;;;;;;;2.15;0.95;;;;;;;;;;9508574;30;20059;-65
2022/06/12 13:34:39;;;;;;;1.92;0.90;;;;;;;;;;9509565;30;20448;-65
2022/06/12 13:39:37;;;;;;;0.60;0.60;;;;;;;;;;9508873;30;20110;-65
2022/06/12 13:44:32;;;;;;;2.10;1.02;;;;;;;;;;9503997;30;20416;-65
2022/06/12 13:49:41;;;;;;;1.92;0.80;;;;;;;;;;9509369;30;20424;-65
2022/06/12 13:54:41;;;;;;;3.58;1.20;;;;;;;;;;9493768;30;20075;-65
2022/06/12 13:59:39;;;;;;;2.50;0.90;;;;;;;;;;9516290;30;20095;-65
2022/06/12 14:04:33;;;;;;;1.60;0.93;;;;;;;;;;9524903;30;20467;-65
2022/06/12 14:09:37;;;;;;;0.80;0.80;;;;;;;;;;9501910;30;20130;-65
2022/06/12 14:14:38;;;;;;;1.33;0.90;;;;;;;;;;9508343;30;20052;-65
2022/06/12 14:19:33;;;;;;;0.77;0.65;;;;;;;;;;9508463;30;20135;-65
2022/06/12 14:24:29;;;;;;;2.30;0.95;;;;;;;;;;9507867;30;20056;-66
2022/06/12 14:29:31;;;;;;;0.90;0.90;;;;;;;;;;9507925;30;20113;-65
2022/06/12 14:34:26;;;;;;;1.58;0.93;;;;;;;;;;9507431;30;20509;-64
2022/06/12 14:39:37;;;;;;;1.05;0.95;;;;;;;;;;9507264;30;20093;-66
2022/06/12 14:44:30;;;;;;;1.30;1.00;;;;;;;;;;9512363;30;20067;-65
2022/06/12 14:49:26;;;;;;;1.42;1.05;;;;;;;;;;9519615;30;20135;-65
2022/06/12 14:54:20;;;;;;;1.80;1.38;;;;;;;;;;9521150;30;20139;-65
2022/06/12 14:59:34;;;;;;;4.93;1.23;;;;;;;;;;9506214;30;20457;-65
2022/06/12 15:04:28;;;;;;;1.25;1.15;;;;;;;;;;9490163;30;20135;-65
2022/06/12 15:09:22;;;;;;;1.27;1.10;;;;;;;;;;9506058;30;20508;-65
2022/06/12 15:14:17;;;;;;;1.08;0.93;;;;;;;;;;9505705;30;20733;-65
2022/06/12 15:19:12;;;;;;;1.60;1.30;;;;;;;;;;9507406;30;20139;-64
2022/06/12 15:24:06;;;;;;;1.52;1.20;;;;;;;;;;9512463;30;20146;-64
2022/06/12 15:34:12;;;;;;;1.30;1.20;;;;;;;;;;9510707;30;20053;-63
2022/06/12 15:39:07;;;;;;;2.80;1.20;;;;;;;;;;9509146;30;20060;-63
2022/06/12 15:44:01;;;;;;;3.22;1.42;;;;;;;;;;9517776;30;20105;-63
2022/06/12 15:49:01;;;;;;;4.57;1.33;;;;;;;;;;9497673;30;20048;-63
2022/06/12 15:53:56;;;;;;;3.50;1.10;;;;;;;;;;9501850;30;20468;-63
2022/06/12 15:58:50;;;;;;;1.60;1.50;;;;;;;;;;9500863;30;20052;-63
2022/06/12 16:03:44;;;;;;;1.90;1.30;;;;;;;;;;9504429;30;20071;-63
2022/06/12 16:08:38;;;;;;;2.53;1.27;;;;;;;;;;9504871;30;20095;-63
2022/06/12 16:13:32;;;;;;;2.88;1.42;;;;;;;;;;9504632;30;20052;-63
2022/06/12 16:18:27;;;;;;;1.88;1.40;;;;;;;;;;9504936;30;20056;-63
2022/06/12 16:23:22;;;;;;;2.73;2.03;;;;;;;;;;9504404;30;20056;-63
2022/06/12 16:28:16;;;;;;;1.50;1.40;;;;;;;;;;9509153;30;20520;-63
2022/06/12 16:33:13;;;;;;;1.85;1.40;;;;;;;;;;9510666;30;20160;-63
2022/06/12 16:38:12;;;;;;;1.85;1.35;;;;;;;;;;9514600;30;20437;-63
2022/06/12 16:43:05;;;;;;;3.25;1.50;;;;;;;;;;9511954;30;20052;-73
2022/06/12 16:48:02;;;;;;;2.60;1.52;;;;;;;;;;9515522;30;20079;-74
2022/06/12 16:52:57;;;;;;;1.58;1.27;;;;;;;;;;9511673;30;20052;-82
2022/06/12 16:57:53;;;;;;;3.78;1.83;;;;;;;;;;9519105;30;20080;-81
2022/06/12 17:02:47;;;;;;;1.55;1.45;;;;;;;;;;9521304;30;20505;-81
2022/06/12 17:07:44;;;;;;;1.80;1.70;;;;;;;;;;9523984;30;20110;-75
2022/06/12 17:12:44;;;;;;;2.45;1.73;;;;;;;;;;9521394;30;20167;-83
2022/06/12 17:17:37;;;;;;;3.70;1.45;;;;;;;;;;9532616;30;20516;-81
2022/06/12 17:22:32;;;;;;;3.55;1.55;;;;;;;;;;9509348;30;20416;-79
2022/06/12 17:27:27;;;;;;;3.63;2.95;;;;;;;;;;9509739;30;20064;-83
2022/06/12 17:32:21;;;;;;;3.10;1.50;;;;;;;;;;9512649;30;20064;-77
2022/06/12 17:37:15;;;;;;;1.83;1.73;;;;;;;;;;9510990;30;20187;-74
2022/06/12 17:42:10;;;;;;;1.92;1.77;;;;;;;;;;9507355;30;20055;-72
2022/06/12 17:47:04;;;;;;;7.35;1.77;;;;;;;;;;9507639;30;20040;-74
2022/06/12 17:51:58;;;;;;;3.85;2.40;;;;;;;;;;9507302;30;20528;-73
2022/06/12 17:56:52;;;;;;;3.75;2.28;;;;;;;;;;9506339;30;20139;-80
2022/06/12 18:01:46;;;;;;;2.70;2.15;;;;;;;;;;9505814;30;20052;-70
2022/06/12 18:06:44;;;;;;;4.18;2.10;;;;;;;;;;9507037;30;20056;-71
2022/06/12 18:11:39;;;;;;;4.00;2.28;;;;;;;;;;9508649;30;20460;-69
2022/06/12 18:21:46;;;;;;;4.90;2.38;;;;;;;;;;9507195;30;20062;-70
2022/06/12 18:26:40;;;;;;;1.63;1.52;;;;;;;;;;9505027;30;20546;-71
2022/06/12 18:31:33;;;;;;;1.98;1.77;;;;;;;;;;9505361;30;20509;-69
2022/06/12 18:36:28;;;;;;;9.65;1.90;;;;;;;;;;9514553;30;20056;-70
2022/06/12 18:41:23;;;;;;;2.38;2.03;;;;;;;;;;9512080;30;20564;-69
2022/06/12 18:46:17;;;;;;;4.38;1.90;;;;;;;;;;9515784;30;20083;-68
2022/06/12 18:51:11;;;;;;;5.45;2.35;;;;;;;;;;9519963;30;20401;-70
2022/06/12 18:56:06;;;;;;;5.35;3.10;;;;;;;;;;9507342;30;20063;-70
2022/06/12 19:01:00;;;;;;;3.10;2.42;;;;;;;;;;9505992;30;20063;-69
2022/06/12 19:05:56;;;;;;;3.88;2.15;;;;;;;;;;9505977;30;20512;-72
2022/06/12 19:10:50;;;;;;;6.97;2.20;;;;;;;;;;9505232;30;20432;-73
2022/06/12 19:15:44;;;;;;;3.83;2.13;;;;;;;;;;9510447;30;20064;-72
2022/06/12 19:20:38;;;;;;;5.20;2.30;;;;;;;;;;9505843;30;20521;-72
2022/06/12 19:25:32;;;;;;;4.65;3.22;;;;;;;;;;9504675;30;20052;-72
2022/06/12 19:30:28;;;;;;;4.95;2.63;;;;;;;;;;9506383;30;20060;-72
2022/06/12 19:35:23;;;;;;;7.03;3.67;;;;;;;;;;9502619;30;20064;-76
2022/06/12 19:40:22;;;;;;;5.43;3.45;;;;;;;;;;9497140;30;20068;-75
2022/06/12 19:45:16;;;;;;;11.52;4.63;;;;;;;;;;9499459;30;20121;-70
2022/06/12 19:50:12;;;;;;;9.38;5.45;;;;;;;;;;9505643;30;20394;-74
2022/06/12 19:55:08;;;;;;;9.63;4.72;;;;;;;;;;9498322;30;20109;-77
2022/06/12 20:00:04;;;;;;;11.93;5.38;;;;;;;;;;9500441;30;20067;-78
2022/06/12 20:10:11;;;;;;;13.70;7.15;;;;;;;;;;9501106;30;20059;-77
2022/06/12 20:15:08;;;;;;;11.73;4.90;;;;;;;;;;9502965;30;20501;-83
2022/06/12 20:20:02;;;;;;;5.43;3.85;;;;;;;;;;9488257;30;20056;-66
2022/06/12 20:24:56;;;;;;;3.50;3.20;;;;;;;;;;9502162;30;20060;-68
2022/06/12 20:29:50;;;;;;;10.07;2.90;;;;;;;;;;9496002;30;20055;-66
2022/06/12 20:34:45;;;;;;;5.00;2.45;;;;;;;;;;9498338;30;20052;-68
2022/06/12 20:39:38;;;;;;;4.72;3.40;;;;;;;;;;9497357;30;20060;-67
2022/06/12 20:44:32;;;;;;;3.28;3.05;;;;;;;;;;9500343;30;20052;-66
2022/06/12 20:49:25;;;;;;;6.13;3.00;;;;;;;;;;9501539;30;20060;-68
2022/06/12 20:54:18;;;;;;;5.28;2.78;;;;;;;;;;9500319;30;20056;-67
2022/06/12 20:59:12;;;;;;;5.40;2.90;;;;;;;;;;9500779;30;20052;-67
2022/06/12 21:04:06;;;;;;;4.90;3.88;;;;;;;;;;9496995;30;20048;-66
2022/06/12 21:09:01;;;;;;;5.70;3.20;;;;;;;;;;9498959;30;20127;-67
2022/06/12 21:13:55;;;;;;;6.32;3.15;;;;;;;;;;9503445;30;20151;-66
2022/06/12 21:18:50;;;;;;;4.05;3.55;;;;;;;;;;9507541;30;20055;-66
2022/06/12 21:23:47;;;;;;;3.25;2.95;;;;;;;;;;9509922;30;20066;-67
2022/06/12 21:28:41;;;;;;;5.25;3.03;;;;;;;;;;9508241;30;20060;-66
2022/06/12 21:33:35;;;;;;;3.47;3.05;;;;;;;;;;9509249;30;20060;-67
2022/06/12 21:38:29;;;;;;;3.97;3.08;;;;;;;;;;9506780;30;20079;-64
2022/06/12 21:43:24;;;;;;;3.22;2.88;;;;;;;;;;9506396;30;20927;-66
2022/06/12 21:48:18;;;;;;;5.47;3.20;;;;;;;;;;9506759;30;20074;-66
2022/06/12 21:58:26;;;;;;;8.52;3.20;;;;;;;;;;9507337;30;20055;-66
2022/06/12 22:03:19;;;;;;;4.32;2.78;;;;;;;;;;9505498;30;21489;-68
2022/06/12 22:08:14;;;;;;;5.85;2.88;;;;;;;;;;9506200;30;20063;-66
2022/06/12 22:13:08;;;;;;;3.90;3.60;;;;;;;;;;9506712;30;20107;-65
2022/06/12 22:18:03;;;;;;;7.88;3.38;;;;;;;;;;9509951;30;20060;-65
2022/06/12 22:22:56;;;;;;;3.30;3.00;;;;;;;;;;9508000;30;20056;-66
2022/06/12 22:27:50;;;;;;;6.03;2.75;;;;;;;;;;9509913;30;20060;-66
2022/06/12 22:32:45;;;;;;;4.88;2.97;;;;;;;;;;9509260;30;20063;-66
2022/06/12 22:37:40;;;;;;;3.28;2.70;;;;;;;;;;9508646;30;20505;-66
2022/06/12 22:42:33;;;;;;;4.85;3.17;;;;;;;;;;9509579;30;20052;-66
2022/06/12 22:47:27;;;;;;;2.83;2.63;;;;;;;;;;9507256;30;20060;-66
2022/06/12 22:52:22;;;;;;;5.75;3.25;;;;;;;;;;9506962;30;20060;-66
2022/06/12 22:57:15;;;;;;;4.80;3.05;;;;;;;;;;9506600;30;20491;-66
2022/06/12 23:02:10;;;;;;;2.97;2.38;;;;;;;;;;9506995;30;20135;-66
2022/06/12 23:07:04;;;;;;;3.17;2.88;;;;;;;;;;9507207;30;20062;-66
2022/06/12 23:11:58;;;;;;;3.45;3.13;;;;;;;;;;9506365;30;20048;-66
2022/06/12 23:16:52;;;;;;;3.78;2.53;;;;;;;;;;9506475;30;20067;-66
2022/06/12 23:21:47;;;;;;;3.97;3.65;;;;;;;;;;9506872;30;20059;-66
2022/06/12 23:26:40;;;;;;;4.80;4.40;;;;;;;;;;9512394;30;20489;-66
2022/06/12 23:31:38;;;;;;;3.88;3.50;;;;;;;;;;9506367;30;20566;-66
2022/06/12 23:36:33;;;;;;;4.45;4.13;;;;;;;;;;9506099;30;20143;-66
2022/06/12 23:41:26;;;;;;;4.00;3.70;;;;;;;;;;9505784;30;20060;-66
2022/06/12 23:46:27;;;;;;;3.90;3.60;;;;;;;;;;9505735;30;20523;-66
2022/06/12 23:51:21;;;;;;;4.35;3.20;;;;;;;;;;9514013;30;20055;-66
2022/06/12 23:56:18;;;;;;;5.45;3.45;;;;;;;;;;9505875;30;20056;-67
